createdAt,value
2018-09-30T00:00:01.614Z,87.60
2018-09-30T00:02:30.204Z,90.00
2018-09-30T00:04:58.797Z,85.90
2018-09-30T00:07:27.385Z,87.50
2018-09-30T00:09:55.992Z,88.30
2018-09-30T00:12:24.561Z,90.20
2018-09-30T00:14:53.161Z,88.10
2018-09-30T00:17:21.779Z,88.50
2018-09-30T00:19:50.392Z,90.30
2018-09-30T00:22:18.976Z,87.60
2018-09-30T00:24:53.201Z,90.60
2018-09-30T00:27:22.707Z,90.20
2018-09-30T00:29:51.301Z,87.00
2018-09-30T00:32:19.903Z,89.00
2018-09-30T00:34:48.507Z,90.40
2018-09-30T00:37:17.080Z,90.10
2018-09-30T00:39:45.681Z,88.80
2018-09-30T00:42:14.443Z,87.40
2018-09-30T00:44:43.065Z,87.00
2018-09-30T00:47:11.657Z,88.20
2018-09-30T00:49:40.249Z,88.80
2018-09-30T00:52:08.817Z,90.30
2018-09-30T00:54:37.421Z,90.40
2018-09-30T00:57:06.020Z,90.60
2018-09-30T00:59:34.616Z,90.00
2018-09-30T01:02:03.191Z,89.60
2018-09-30T01:04:31.774Z,88.80
2018-09-30T01:07:00.339Z,89.90
2018-09-30T01:09:28.932Z,88.40
2018-09-30T01:11:57.512Z,89.90
2018-09-30T01:14:26.121Z,90.20
2018-09-30T01:16:54.701Z,91.00
2018-09-30T01:19:23.285Z,89.60
2018-09-30T01:21:52.202Z,90.30
2018-09-30T01:24:20.772Z,90.30
2018-09-30T01:26:49.372Z,91.00
2018-09-30T01:29:17.969Z,90.00
2018-09-30T01:31:46.607Z,90.40
2018-09-30T01:34:15.170Z,90.40
2018-09-30T01:36:43.768Z,91.10
2018-09-30T01:39:12.356Z,90.50
2018-09-30T01:41:40.973Z,89.60
2018-09-30T01:44:09.538Z,90.70
2018-09-30T01:46:38.116Z,90.80
2018-09-30T01:49:06.825Z,91.10
2018-09-30T01:51:35.429Z,90.40
2018-09-30T01:54:04.009Z,89.20
2018-09-30T01:56:32.609Z,90.00
2018-09-30T01:59:01.199Z,89.80
2018-09-30T02:01:29.788Z,91.40
2018-09-30T02:03:58.607Z,91.40
2018-09-30T02:06:27.196Z,91.00
2018-09-30T02:08:55.767Z,89.80
2018-09-30T02:11:24.357Z,90.20
2018-09-30T02:13:52.916Z,90.60
2018-09-30T02:16:21.504Z,89.90
2018-09-30T02:18:50.072Z,87.90
2018-09-30T02:21:19.672Z,90.00
2018-09-30T02:23:48.242Z,90.60
2018-09-30T02:26:16.849Z,89.30
2018-09-30T02:28:45.549Z,90.20
2018-09-30T02:31:14.201Z,89.90
2018-09-30T02:33:42.878Z,89.80
2018-09-30T02:36:11.480Z,90.30
2018-09-30T02:38:40.048Z,90.10
2018-09-30T02:41:09.026Z,91.60
2018-09-30T02:43:37.602Z,92.10
2018-09-30T02:46:06.252Z,91.70
2018-09-30T02:48:34.829Z,92.00
2018-09-30T02:51:04.080Z,92.00
2018-09-30T02:53:34.218Z,92.80
2018-09-30T02:56:02.846Z,91.70
2018-09-30T02:58:31.474Z,91.30
2018-09-30T03:01:00.055Z,90.90
2018-09-30T03:03:29.093Z,92.20
2018-09-30T03:05:57.715Z,90.80
2018-09-30T03:08:31.542Z,91.90
2018-09-30T03:11:00.110Z,91.10
2018-09-30T03:13:28.713Z,91.70
2018-09-30T03:15:57.274Z,91.70
2018-09-30T03:18:25.869Z,92.00
2018-09-30T03:20:54.431Z,91.60
2018-09-30T03:23:23.025Z,91.70
2018-09-30T03:25:52.103Z,91.20
2018-09-30T03:28:20.694Z,91.60
2018-09-30T03:30:49.253Z,92.50
2018-09-30T03:33:17.857Z,92.40
2018-09-30T03:35:46.428Z,92.30
2018-09-30T03:38:15.085Z,92.20
2018-09-30T03:40:43.676Z,92.60
2018-09-30T03:43:12.268Z,94.50
2018-09-30T03:45:40.862Z,91.90
2018-09-30T03:48:09.481Z,92.00
2018-09-30T03:50:38.182Z,91.90
2018-09-30T03:53:06.851Z,92.10
2018-09-30T03:55:35.431Z,91.60
2018-09-30T03:58:04.033Z,92.20
2018-09-30T04:00:32.613Z,92.40
2018-09-30T04:03:01.200Z,92.90
2018-09-30T04:05:29.775Z,92.00
2018-09-30T04:07:58.999Z,91.80
2018-09-30T04:10:27.729Z,91.90
2018-09-30T04:12:57.412Z,91.50
2018-09-30T04:15:26.041Z,91.20
2018-09-30T04:17:54.605Z,92.20
2018-09-30T04:20:23.197Z,91.60
2018-09-30T04:22:51.749Z,91.60
2018-09-30T04:25:20.425Z,91.60
2018-09-30T04:27:49.555Z,92.90
2018-09-30T04:30:18.162Z,92.20
2018-09-30T04:32:46.761Z,91.90
2018-09-30T04:35:15.353Z,91.50
2018-09-30T04:37:43.924Z,92.00
2018-09-30T04:40:12.537Z,94.50
2018-09-30T04:42:41.123Z,92.70
2018-09-30T04:45:09.763Z,91.80
2018-09-30T04:47:38.341Z,92.40
2018-09-30T04:50:06.973Z,93.10
2018-09-30T04:52:35.532Z,93.30
2018-09-30T04:55:04.182Z,92.60
2018-09-30T04:57:33.073Z,92.20
2018-09-30T05:00:01.734Z,92.60
2018-09-30T05:02:30.333Z,93.60
2018-09-30T05:04:58.933Z,93.00
2018-09-30T05:07:27.924Z,93.30
2018-09-30T05:09:56.518Z,92.90
2018-09-30T05:12:25.096Z,90.90
2018-09-30T05:14:53.676Z,92.70
2018-09-30T05:17:22.272Z,93.60
2018-09-30T05:19:50.877Z,92.00
2018-09-30T05:22:19.456Z,92.40
2018-09-30T05:24:48.053Z,92.20
2018-09-30T05:27:16.625Z,90.50
2018-09-30T05:29:45.222Z,91.90
2018-09-30T05:32:13.776Z,92.50
2018-09-30T05:34:43.021Z,92.50
2018-09-30T05:37:11.625Z,91.10
2018-09-30T05:39:40.348Z,91.10
2018-09-30T05:42:08.939Z,92.00
2018-09-30T05:44:37.729Z,93.80
2018-09-30T05:47:06.802Z,92.40
2018-09-30T05:49:35.388Z,93.10
2018-09-30T05:52:04.020Z,93.50
2018-09-30T05:54:32.592Z,94.10
2018-09-30T05:57:01.172Z,93.60
2018-09-30T05:59:29.760Z,93.20
2018-09-30T06:01:58.344Z,93.10
2018-09-30T06:04:26.909Z,94.50
2018-09-30T06:06:55.515Z,95.00
2018-09-30T06:09:24.119Z,92.30
2018-09-30T06:11:52.734Z,93.20
2018-09-30T06:14:21.405Z,94.60
2018-09-30T06:16:49.946Z,93.30
2018-09-30T06:19:18.529Z,92.50
2018-09-30T06:21:47.124Z,93.70
2018-09-30T06:24:16.547Z,94.60
2018-09-30T06:26:45.098Z,94.20
2018-09-30T06:29:13.665Z,94.90
2018-09-30T06:31:42.295Z,94.30
2018-09-30T06:34:10.864Z,93.30
2018-09-30T06:36:39.472Z,94.60
2018-09-30T06:39:09.372Z,93.60
2018-09-30T06:41:38.416Z,95.80
2018-09-30T06:44:07.541Z,96.10
2018-09-30T06:46:36.126Z,96.10
2018-09-30T06:49:05.188Z,94.20
2018-09-30T06:51:33.790Z,92.80
2018-09-30T06:54:02.364Z,91.20
2018-09-30T06:56:31.425Z,90.00
2018-09-30T06:59:00.046Z,87.80
2018-09-30T07:01:28.697Z,86.50
2018-09-30T07:03:57.261Z,84.30
2018-09-30T07:06:25.861Z,82.00
2018-09-30T07:08:54.437Z,81.40
2018-09-30T07:11:23.053Z,78.80
2018-09-30T07:13:51.629Z,77.30
2018-09-30T07:16:20.225Z,75.90
2018-09-30T07:18:48.793Z,75.10
2018-09-30T07:21:17.436Z,73.10
2018-09-30T07:23:46.025Z,72.40
2018-09-30T07:26:14.636Z,70.70
2018-09-30T07:28:43.265Z,72.00
2018-09-30T07:31:11.845Z,70.30
2018-09-30T07:33:41.121Z,67.20
2018-09-30T07:36:09.748Z,68.00
2018-09-30T07:38:38.373Z,65.80
2018-09-30T07:41:07.008Z,64.50
2018-09-30T07:43:35.917Z,63.10
2018-09-30T07:46:04.545Z,62.40
2018-09-30T07:48:33.144Z,61.40
2018-09-30T07:51:01.727Z,59.10
2018-09-30T07:53:30.329Z,60.50
2018-09-30T07:55:58.914Z,58.90
2018-09-30T07:58:27.528Z,59.40
2018-09-30T08:00:56.370Z,55.40
2018-09-30T08:03:24.988Z,56.90
2018-09-30T08:05:53.625Z,56.90
2018-09-30T08:08:22.238Z,54.40
2018-09-30T08:10:51.134Z,52.70
2018-09-30T08:13:19.767Z,50.60
2018-09-30T08:15:48.376Z,50.10
2018-09-30T08:18:17.204Z,49.20
2018-09-30T08:20:45.784Z,52.20
2018-09-30T08:23:14.397Z,49.90
2018-09-30T08:25:42.994Z,47.40
2018-09-30T08:28:11.833Z,47.00
2018-09-30T08:30:40.605Z,45.20
2018-09-30T08:33:09.205Z,46.70
2018-09-30T08:35:37.802Z,46.50
2018-09-30T08:38:11.866Z,44.60
2018-09-30T08:40:46.069Z,43.20
2018-09-30T08:43:14.929Z,43.30
2018-09-30T08:45:43.664Z,44.20
2018-09-30T08:48:12.269Z,42.60
2018-09-30T08:50:40.841Z,44.70
2018-09-30T08:53:09.440Z,43.60
2018-09-30T08:55:38.024Z,41.40
2018-09-30T08:58:06.706Z,40.20
2018-09-30T09:00:35.522Z,44.90
2018-09-30T09:03:04.183Z,42.70
2018-09-30T09:05:32.756Z,40.60
2018-09-30T09:08:01.357Z,40.00
2018-09-30T09:10:29.945Z,39.30
2018-09-30T09:12:58.629Z,39.40
2018-09-30T09:15:27.670Z,38.40
2018-09-30T09:17:56.234Z,37.90
2018-09-30T09:20:24.814Z,38.80
2018-09-30T09:22:53.583Z,38.50
2018-09-30T09:25:22.255Z,42.90
2018-09-30T09:27:50.905Z,37.40
2018-09-30T09:30:19.713Z,38.60
2018-09-30T09:32:48.746Z,37.40
2018-09-30T09:35:17.337Z,38.80
2018-09-30T09:37:45.933Z,40.50
2018-09-30T09:40:14.617Z,39.50
2018-09-30T09:42:43.210Z,39.80
2018-09-30T09:45:14.720Z,37.70
2018-09-30T09:47:43.299Z,36.20
2018-09-30T09:50:11.923Z,36.50
2018-09-30T09:52:40.577Z,35.00
2018-09-30T09:55:09.307Z,36.70
2018-09-30T09:57:37.929Z,35.90
2018-09-30T10:00:07.637Z,36.30
2018-09-30T10:02:36.242Z,36.40
2018-09-30T10:05:04.998Z,37.00
2018-09-30T10:07:33.578Z,36.10
2018-09-30T10:10:02.201Z,38.50
2018-09-30T10:12:30.798Z,34.70
2018-09-30T10:14:59.393Z,33.40
2018-09-30T10:17:27.976Z,33.90
2018-09-30T10:19:56.568Z,35.40
2018-09-30T10:22:25.160Z,35.50
2018-09-30T10:24:53.744Z,35.40
2018-09-30T10:27:22.334Z,34.30
2018-09-30T10:29:51.117Z,33.90
2018-09-30T10:32:19.701Z,33.30
2018-09-30T10:34:48.336Z,33.70
2018-09-30T10:37:16.909Z,35.30
2018-09-30T10:39:45.509Z,35.50
2018-09-30T10:42:14.614Z,33.50
2018-09-30T10:44:43.206Z,33.00
2018-09-30T10:47:11.786Z,35.40
2018-09-30T10:49:41.230Z,33.20
2018-09-30T10:52:09.817Z,33.30
2018-09-30T10:54:38.429Z,35.60
2018-09-30T10:57:07.048Z,34.20
2018-09-30T10:59:35.665Z,35.10
2018-09-30T11:02:04.282Z,34.80
2018-09-30T11:04:32.887Z,35.70
2018-09-30T11:07:01.701Z,35.80
2018-09-30T11:09:30.477Z,35.90
2018-09-30T11:11:59.120Z,37.20
2018-09-30T11:14:27.729Z,37.30
2018-09-30T11:16:56.359Z,37.60
2018-09-30T11:19:25.017Z,38.60
2018-09-30T11:21:53.614Z,40.30
2018-09-30T11:24:22.216Z,40.60
2018-09-30T11:26:50.798Z,40.30
2018-09-30T11:29:19.411Z,41.20
2018-09-30T11:31:48.320Z,41.60
2018-09-30T11:34:16.997Z,41.50
2018-09-30T11:36:45.633Z,42.30
2018-09-30T11:39:14.251Z,43.30
2018-09-30T11:41:43.536Z,43.00
2018-09-30T11:44:12.597Z,43.40
2018-09-30T11:46:41.633Z,43.70
2018-09-30T11:49:10.600Z,43.80
2018-09-30T11:51:39.246Z,44.30
2018-09-30T11:54:07.836Z,44.00
2018-09-30T11:56:36.436Z,44.70
2018-09-30T11:59:05.080Z,44.30
2018-09-30T12:01:33.704Z,45.30
2018-09-30T12:04:02.297Z,45.10
2018-09-30T12:06:30.904Z,45.10
2018-09-30T12:08:59.485Z,46.20
2018-09-30T12:11:28.089Z,45.90
2018-09-30T12:13:56.672Z,46.10
2018-09-30T12:16:25.277Z,46.70
2018-09-30T12:18:53.864Z,46.70
2018-09-30T12:21:22.464Z,48.00
2018-09-30T12:23:51.032Z,47.50
2018-09-30T12:26:19.656Z,47.80
2018-09-30T12:28:48.245Z,47.60
2018-09-30T12:31:16.901Z,47.40
2018-09-30T12:33:45.482Z,48.20
2018-09-30T12:36:14.089Z,47.40
2018-09-30T12:38:42.696Z,48.30
2018-09-30T12:41:11.330Z,48.60
2018-09-30T12:43:39.948Z,48.80
2018-09-30T12:46:08.881Z,48.90
2018-09-30T12:48:37.458Z,49.30
2018-09-30T12:51:06.104Z,49.70
2018-09-30T12:53:34.718Z,49.00
2018-09-30T12:56:03.684Z,49.30
2018-09-30T12:58:32.299Z,49.50
2018-09-30T13:01:00.913Z,50.10
2018-09-30T13:03:29.505Z,49.90
2018-09-30T13:05:58.153Z,49.90
2018-09-30T13:08:26.784Z,50.00
2018-09-30T13:10:55.353Z,50.30
2018-09-30T13:13:24.029Z,50.70
2018-09-30T13:15:52.620Z,50.60
2018-09-30T13:18:21.216Z,51.20
2018-09-30T13:20:49.790Z,50.70
2018-09-30T13:23:18.457Z,50.90
2018-09-30T13:25:47.037Z,50.60
2018-09-30T13:28:16.674Z,51.00
2018-09-30T13:30:45.752Z,51.70
2018-09-30T13:33:14.386Z,51.40
2018-09-30T13:35:43.557Z,51.70
2018-09-30T13:38:12.166Z,51.60
2018-09-30T13:40:40.918Z,51.50
2018-09-30T13:43:09.453Z,50.70
2018-09-30T13:45:38.037Z,51.80
2018-09-30T13:48:06.695Z,51.80
2018-09-30T13:50:35.284Z,51.70
2018-09-30T13:53:03.894Z,51.20
2018-09-30T13:55:32.492Z,51.70
2018-09-30T13:58:01.105Z,51.80
2018-09-30T14:00:29.685Z,51.50
2018-09-30T14:02:58.468Z,52.10
2018-09-30T14:05:27.055Z,52.00
2018-09-30T14:07:55.713Z,52.00
2018-09-30T14:10:24.857Z,52.70
2018-09-30T14:12:53.469Z,53.60
2018-09-30T14:15:22.049Z,52.40
2018-09-30T14:17:50.653Z,52.80
2018-09-30T14:20:19.235Z,52.60
2018-09-30T14:22:47.838Z,52.00
2018-09-30T14:25:16.675Z,53.40
2018-09-30T14:27:45.673Z,53.10
2018-09-30T14:30:14.258Z,53.50
2018-09-30T14:32:42.881Z,53.10
2018-09-30T14:35:11.458Z,54.20
2018-09-30T14:37:40.207Z,53.60
2018-09-30T14:40:09.432Z,53.00
2018-09-30T14:42:38.032Z,53.00
2018-09-30T14:45:06.804Z,53.50
2018-09-30T14:47:35.417Z,53.90
2018-09-30T14:50:04.045Z,53.70
2018-09-30T14:52:32.616Z,53.50
2018-09-30T14:55:01.222Z,54.20
2018-09-30T14:57:29.948Z,53.70
2018-09-30T14:59:58.550Z,54.40
2018-09-30T15:02:27.137Z,53.80
2018-09-30T15:04:55.742Z,54.00
2018-09-30T15:07:25.129Z,54.40
2018-09-30T15:09:53.750Z,54.60
2018-09-30T15:12:22.382Z,55.30
2018-09-30T15:14:51.206Z,56.20
2018-09-30T15:17:19.904Z,55.20
2018-09-30T15:19:48.490Z,54.70
2018-09-30T15:22:17.078Z,54.90
2018-09-30T15:24:46.748Z,55.00
2018-09-30T15:27:15.341Z,55.30
2018-09-30T15:29:43.942Z,55.00
2018-09-30T15:32:12.530Z,55.00
2018-09-30T15:34:41.317Z,54.40
2018-09-30T15:37:09.900Z,55.70
2018-09-30T15:39:38.501Z,55.80
2018-09-30T15:42:07.104Z,55.40
2018-09-30T15:44:35.724Z,55.80
2018-09-30T15:47:04.331Z,56.00
2018-09-30T15:49:32.912Z,57.00
2018-09-30T15:52:01.480Z,56.70
2018-09-30T15:54:30.080Z,55.50
2018-09-30T15:56:59.002Z,55.90
2018-09-30T15:59:27.607Z,55.50
2018-09-30T16:01:56.187Z,56.10
2018-09-30T16:04:24.805Z,57.60
2018-09-30T16:06:53.830Z,63.10
2018-09-30T16:09:24.870Z,60.30
2018-09-30T16:11:53.467Z,60.00
2018-09-30T16:14:22.639Z,63.10
2018-09-30T16:16:51.384Z,62.60
2018-09-30T16:19:20.142Z,62.60
2018-09-30T16:21:48.782Z,63.80
2018-09-30T16:24:17.428Z,64.90
2018-09-30T16:26:46.040Z,66.20
2018-09-30T16:29:15.201Z,66.80
2018-09-30T16:31:43.801Z,69.90
2018-09-30T16:34:12.389Z,69.90
2018-09-30T16:36:41.000Z,72.40
2018-09-30T16:39:10.325Z,73.90
2018-09-30T16:41:39.058Z,74.10
2018-09-30T16:44:07.739Z,75.80
2018-09-30T16:46:36.345Z,75.90
2018-09-30T16:49:04.944Z,76.20
2018-09-30T16:51:33.545Z,77.90
2018-09-30T16:54:02.221Z,77.60
2018-09-30T16:56:30.906Z,77.20
2018-09-30T16:58:59.777Z,78.70
2018-09-30T17:01:28.428Z,77.50
2018-09-30T17:03:57.013Z,79.60
2018-09-30T17:06:25.625Z,79.50
2018-09-30T17:08:54.412Z,80.20
2018-09-30T17:11:23.037Z,77.80
2018-09-30T17:13:51.629Z,78.90
2018-09-30T17:16:20.228Z,79.50
2018-09-30T17:18:48.846Z,80.60
2018-09-30T17:21:17.443Z,80.70
2018-09-30T17:23:46.093Z,81.20
2018-09-30T17:26:14.695Z,80.80
2018-09-30T17:28:43.307Z,81.20
2018-09-30T17:31:11.970Z,82.80
2018-09-30T17:33:40.885Z,84.40
2018-09-30T17:36:09.819Z,83.00
2018-09-30T17:38:38.389Z,82.30
2018-09-30T17:41:07.044Z,82.80
2018-09-30T17:43:35.618Z,83.00
2018-09-30T17:46:04.294Z,82.20
2018-09-30T17:48:32.908Z,80.50
2018-09-30T17:51:01.987Z,80.40
2018-09-30T17:53:30.558Z,82.60
2018-09-30T17:55:59.518Z,83.40
2018-09-30T17:58:28.174Z,84.50
2018-09-30T18:00:56.965Z,85.40
2018-09-30T18:03:25.572Z,84.00
2018-09-30T18:05:54.193Z,85.10
2018-09-30T18:08:22.774Z,85.80
2018-09-30T18:10:51.419Z,85.30
2018-09-30T18:13:20.066Z,87.00
2018-09-30T18:15:48.692Z,86.60
2018-09-30T18:18:17.358Z,85.90
2018-09-30T18:20:46.352Z,87.60
2018-09-30T18:23:14.972Z,85.20
2018-09-30T18:25:45.124Z,84.60
2018-09-30T18:28:14.067Z,85.40
2018-09-30T18:30:44.036Z,83.40
2018-09-30T18:33:13.325Z,84.70
2018-09-30T18:35:43.456Z,84.60
2018-09-30T18:38:12.054Z,86.40
2018-09-30T18:40:46.346Z,89.00
2018-09-30T18:43:15.258Z,88.90
2018-09-30T18:45:45.081Z,86.70
2018-09-30T18:48:13.756Z,88.40
2018-09-30T18:50:42.728Z,85.40
2018-09-30T18:53:11.388Z,86.40
2018-09-30T18:55:40.341Z,86.00
2018-09-30T18:58:08.945Z,87.50
2018-09-30T19:00:37.551Z,87.30
2018-09-30T19:03:06.224Z,87.20
2018-09-30T19:05:34.805Z,86.50
2018-09-30T19:08:03.433Z,89.30
2018-09-30T19:10:32.106Z,85.80
2018-09-30T19:13:00.721Z,87.40
2018-09-30T19:15:29.291Z,89.50
2018-09-30T19:17:57.893Z,90.30
2018-09-30T19:20:26.481Z,90.30
2018-09-30T19:22:56.887Z,89.80
2018-09-30T19:25:25.895Z,90.10
2018-09-30T19:27:54.506Z,88.90
2018-09-30T19:30:23.126Z,89.90
2018-09-30T19:32:51.751Z,90.10
2018-09-30T19:35:20.377Z,90.30
2018-09-30T19:37:49.014Z,90.50
2018-09-30T19:40:17.609Z,90.00
2018-09-30T19:42:46.205Z,90.40
2018-09-30T19:45:14.820Z,90.30
2018-09-30T19:47:44.001Z,90.20
2018-09-30T19:50:12.582Z,90.20
2018-09-30T19:52:41.198Z,90.80
2018-09-30T19:55:09.835Z,91.40
2018-09-30T19:57:38.460Z,90.40
2018-09-30T20:00:07.113Z,89.70
2018-09-30T20:02:35.720Z,91.60
2018-09-30T20:05:04.377Z,91.10
2018-09-30T20:07:32.974Z,90.90
2018-09-30T20:10:01.563Z,90.70
2018-09-30T20:12:30.153Z,90.90
2018-09-30T20:14:58.746Z,91.40
2018-09-30T20:17:27.457Z,91.60
2018-09-30T20:19:56.069Z,91.40
2018-09-30T20:22:24.845Z,91.90
2018-09-30T20:24:53.463Z,90.40
2018-09-30T20:27:22.054Z,90.50
2018-09-30T20:29:50.655Z,90.10
2018-09-30T20:32:19.250Z,89.60
2018-09-30T20:34:47.914Z,88.40
2018-09-30T20:37:16.499Z,90.90
2018-09-30T20:39:45.095Z,90.80
2018-09-30T20:42:13.702Z,91.90
2018-09-30T20:44:42.305Z,92.10
2018-09-30T20:47:10.889Z,92.80
2018-09-30T20:49:39.536Z,92.50
2018-09-30T20:52:08.141Z,91.40
2018-09-30T20:54:36.770Z,91.80
2018-09-30T20:57:05.365Z,91.90
2018-09-30T20:59:34.365Z,92.10
2018-09-30T21:02:02.967Z,92.10
2018-09-30T21:04:31.649Z,92.20
2018-09-30T21:07:00.300Z,93.50
2018-09-30T21:09:28.917Z,91.80
2018-09-30T21:11:57.492Z,91.90
2018-09-30T21:14:26.082Z,92.30
2018-09-30T21:16:54.665Z,92.30
2018-09-30T21:19:23.251Z,91.20
2018-09-30T21:21:51.837Z,92.20
2018-09-30T21:24:20.438Z,93.00
2018-09-30T21:26:49.019Z,92.70
2018-09-30T21:29:17.677Z,92.80
2018-09-30T21:31:46.260Z,91.80
2018-09-30T21:34:14.935Z,91.50
2018-09-30T21:36:43.485Z,92.20
2018-09-30T21:39:12.431Z,92.20
2018-09-30T21:41:41.060Z,91.60
2018-09-30T21:44:10.019Z,91.30
2018-09-30T21:46:39.102Z,90.70
2018-09-30T21:49:07.716Z,91.50
2018-09-30T21:51:36.307Z,90.90
2018-09-30T21:54:04.958Z,91.70
2018-09-30T21:56:33.576Z,92.90
2018-09-30T21:59:02.161Z,91.90
2018-09-30T22:01:30.810Z,91.90
2018-09-30T22:03:59.361Z,92.10
2018-09-30T22:06:27.984Z,93.20
2018-09-30T22:08:56.577Z,93.70
2018-09-30T22:11:25.189Z,93.40
2018-09-30T22:13:53.869Z,94.60
2018-09-30T22:16:22.518Z,93.50
2018-09-30T22:18:51.085Z,92.60
2018-09-30T22:21:19.693Z,93.50
2018-09-30T22:23:48.279Z,93.20
2018-09-30T22:26:16.874Z,92.90
2018-09-30T22:28:45.459Z,92.50
2018-09-30T22:31:14.043Z,93.60
2018-09-30T22:33:42.614Z,93.50
2018-09-30T22:36:11.203Z,92.60
2018-09-30T22:38:39.773Z,92.00
2018-09-30T22:41:08.532Z,93.80
2018-09-30T22:43:37.462Z,92.50
2018-09-30T22:46:06.145Z,93.30
2018-09-30T22:48:34.716Z,92.90
2018-09-30T22:51:03.316Z,92.00
2018-09-30T22:53:31.900Z,93.40
2018-09-30T22:56:00.511Z,92.80
2018-09-30T22:58:29.437Z,92.50
2018-09-30T23:00:58.033Z,91.10
2018-09-30T23:03:26.662Z,92.20
2018-09-30T23:05:55.269Z,91.90
2018-09-30T23:08:23.841Z,91.20
2018-09-30T23:10:52.506Z,91.50
2018-09-30T23:13:21.076Z,91.90
2018-09-30T23:15:49.704Z,90.90
2018-09-30T23:18:18.292Z,91.10
2018-09-30T23:20:46.912Z,91.70
2018-09-30T23:23:15.475Z,91.50
2018-09-30T23:25:44.078Z,92.10
2018-09-30T23:28:12.705Z,93.00
2018-09-30T23:30:41.591Z,93.30
2018-09-30T23:33:10.197Z,93.90
2018-09-30T23:35:38.769Z,92.90
2018-09-30T23:38:07.405Z,92.10
2018-09-30T23:40:35.988Z,92.60
2018-09-30T23:43:04.605Z,93.60
2018-09-30T23:45:33.185Z,92.80
2018-09-30T23:48:01.760Z,92.00
2018-09-30T23:50:30.757Z,91.90
2018-09-30T23:52:59.358Z,92.30
2018-09-30T23:55:27.937Z,92.10
2018-09-30T23:58:09.968Z,92.00
